createdAt,value
2022-10-17T00:01:05.952Z,8.48
2022-10-17T00:03:35.007Z,8.77
2022-10-17T00:06:07.752Z,9.27
2022-10-17T00:08:37.083Z,9.20
2022-10-17T00:11:12.940Z,9.40
2022-10-17T00:13:41.858Z,9.15
2022-10-17T00:16:09.680Z,9.80
2022-10-17T00:18:37.063Z,9.30
2022-10-17T00:21:04.882Z,9.73
2022-10-17T00:23:33.737Z,9.23
2022-10-17T00:26:04.352Z,8.95
2022-10-17T00:28:32.412Z,9.13
2022-10-17T00:31:03.429Z,9.43
2022-10-17T00:33:32.977Z,8.93
2022-10-17T00:36:17.672Z,9.32
2022-10-17T00:38:49.723Z,9.18
2022-10-17T00:41:22.553Z,9.35
2022-10-17T00:44:29.517Z,9.38
2022-10-17T00:47:09.520Z,8.73
2022-10-17T00:49:38.693Z,9.10
2022-10-17T00:52:15.761Z,9.43
2022-10-17T00:54:51.723Z,8.98
2022-10-17T00:57:19.204Z,9.38
2022-10-17T00:59:54.301Z,8.88
2022-10-17T01:02:23.801Z,9.15
2022-10-17T01:04:56.413Z,8.87
2022-10-17T01:07:23.968Z,9.45
2022-10-17T01:09:51.489Z,9.57
2022-10-17T01:13:08.444Z,8.80
2022-10-17T01:15:55.528Z,8.45
2022-10-17T01:18:29.144Z,9.70
2022-10-17T01:21:48.058Z,9.25
2022-10-17T01:24:37.068Z,9.70
2022-10-17T01:27:26.990Z,9.55
2022-10-17T01:30:53.595Z,9.93
2022-10-17T01:33:40.968Z,9.90
2022-10-17T01:36:46.163Z,9.10
2022-10-17T01:40:16.121Z,10.38
2022-10-17T01:42:59.571Z,9.88
2022-10-17T01:45:42.569Z,10.15
2022-10-17T01:48:22.357Z,10.52
2022-10-17T01:51:08.500Z,10.73
2022-10-17T01:53:44.563Z,10.30
2022-10-17T01:56:19.458Z,10.35
2022-10-17T01:58:59.478Z,10.52
2022-10-17T02:01:31.639Z,9.52
2022-10-17T02:04:03.815Z,10.20
2022-10-17T02:06:38.611Z,10.00
2022-10-17T02:09:26.931Z,9.50
2022-10-17T02:12:52.330Z,10.50
2022-10-17T02:15:49.815Z,10.40
2022-10-17T02:18:56.768Z,10.50
2022-10-17T02:22:01.756Z,10.30
2022-10-17T02:25:23.437Z,10.35
2022-10-17T02:28:15.788Z,9.93
2022-10-17T02:30:51.673Z,10.57
2022-10-17T02:33:39.156Z,9.70
2022-10-17T02:36:16.093Z,10.13
2022-10-17T02:38:46.147Z,9.82
2022-10-17T02:41:18.675Z,10.43
2022-10-17T02:43:50.453Z,10.65
2022-10-17T02:52:04.996Z,9.82
2022-10-17T02:54:36.462Z,10.38
2022-10-17T02:57:14.434Z,10.30
2022-10-17T02:59:45.867Z,10.43
2022-10-17T03:02:13.712Z,10.55
2022-10-17T03:04:46.494Z,9.77
2022-10-17T03:07:13.893Z,10.30
2022-10-17T03:09:41.327Z,9.75
2022-10-17T03:12:08.844Z,10.88
2022-10-17T03:14:36.547Z,9.77
2022-10-17T03:17:04.504Z,10.45
2022-10-17T03:19:31.894Z,10.05
2022-10-17T03:21:59.258Z,10.23
2022-10-17T03:24:26.717Z,10.32
2022-10-17T03:26:54.322Z,9.48
2022-10-17T03:29:21.833Z,9.95
2022-10-17T03:31:49.305Z,9.80
2022-10-17T03:34:18.818Z,9.02
2022-10-17T03:36:46.807Z,9.82
2022-10-17T03:39:14.241Z,9.57
2022-10-17T03:41:42.358Z,10.10
2022-10-17T03:44:09.982Z,9.95
2022-10-17T03:46:37.481Z,10.77
2022-10-17T03:49:05.063Z,10.45
2022-10-17T03:51:35.198Z,10.63
2022-10-17T03:54:06.992Z,11.48
2022-10-17T03:56:34.469Z,10.75
2022-10-17T03:59:05.082Z,10.98
2022-10-17T04:01:35.772Z,10.93
2022-10-17T04:04:03.340Z,10.30
2022-10-17T04:06:34.315Z,10.87
2022-10-17T04:09:02.854Z,10.23
2022-10-17T04:12:02.583Z,10.38
2022-10-17T04:14:31.907Z,10.30
2022-10-17T04:16:59.769Z,11.45
2022-10-17T04:19:28.525Z,10.77
2022-10-17T04:21:56.715Z,10.20
2022-10-17T04:24:25.792Z,10.00
2022-10-17T04:27:06.600Z,11.38
2022-10-17T04:29:37.633Z,10.30
2022-10-17T04:32:10.970Z,10.50
2022-10-17T04:34:43.405Z,11.18
2022-10-17T04:37:11.322Z,10.52
2022-10-17T04:39:38.782Z,10.40
2022-10-17T04:42:06.170Z,10.43
2022-10-17T04:44:35.426Z,10.82
2022-10-17T04:47:03.057Z,9.90
2022-10-17T04:49:30.507Z,10.48
2022-10-17T04:52:06.975Z,10.63
2022-10-17T04:54:43.525Z,10.15
2022-10-17T04:57:16.038Z,9.38
2022-10-17T04:59:52.956Z,9.38
2022-10-17T05:02:41.725Z,9.20
2022-10-17T05:05:10.081Z,9.85
2022-10-17T05:07:40.741Z,9.32
2022-10-17T05:10:13.213Z,8.95
2022-10-17T05:12:44.338Z,9.32
2022-10-17T05:15:13.127Z,9.10
2022-10-17T05:17:41.761Z,8.55
2022-10-17T05:20:10.324Z,8.35
2022-10-17T05:22:45.881Z,9.15
2022-10-17T05:25:13.420Z,8.52
2022-10-17T05:27:40.821Z,8.18
2022-10-17T05:30:09.991Z,8.98
2022-10-17T05:32:39.545Z,8.40
2022-10-17T05:35:08.586Z,8.10
2022-10-17T05:37:37.380Z,8.48
2022-10-17T05:40:06.666Z,8.13
2022-10-17T05:42:34.214Z,8.23
2022-10-17T05:45:02.388Z,8.13
2022-10-17T05:47:30.969Z,8.60
2022-10-17T05:49:59.380Z,8.48
2022-10-17T05:52:33.736Z,8.07
2022-10-17T05:55:13.248Z,8.20
2022-10-17T05:57:41.020Z,8.55
2022-10-17T06:00:14.172Z,8.80
2022-10-17T06:02:48.888Z,8.48
2022-10-17T06:05:19.116Z,8.25
2022-10-17T06:07:50.037Z,7.82
2022-10-17T06:10:18.956Z,8.05
2022-10-17T06:12:47.010Z,8.68
2022-10-17T06:15:15.972Z,7.88
2022-10-17T06:17:47.808Z,7.72
2022-10-17T06:20:15.623Z,7.68
2022-10-17T06:22:44.001Z,7.90
2022-10-17T06:25:17.540Z,8.27
2022-10-17T06:27:45.105Z,8.18
2022-10-17T06:30:13.095Z,7.82
2022-10-17T06:32:40.490Z,7.88
2022-10-17T06:35:08.188Z,7.95
2022-10-17T06:37:38.856Z,7.97
2022-10-17T06:40:12.220Z,8.50
2022-10-17T06:42:40.094Z,8.23
2022-10-17T06:45:26.178Z,7.90
2022-10-17T06:48:09.656Z,7.80
2022-10-17T06:50:44.599Z,8.43
2022-10-17T06:53:16.374Z,7.80
2022-10-17T06:56:04.208Z,7.63
2022-10-17T06:58:54.668Z,8.57
2022-10-17T07:01:35.145Z,8.02
2022-10-17T07:04:04.493Z,9.32
2022-10-17T07:06:32.348Z,7.57
2022-10-17T07:09:06.950Z,8.05
2022-10-17T07:11:37.313Z,8.05
2022-10-17T07:14:04.929Z,8.48
2022-10-17T07:16:32.377Z,8.07
2022-10-17T07:19:08.990Z,8.48
2022-10-17T07:21:41.656Z,8.05
2022-10-17T07:24:11.269Z,8.10
2022-10-17T07:26:40.828Z,8.27
2022-10-17T07:29:09.928Z,8.60
2022-10-17T07:31:48.872Z,8.20
2022-10-17T07:34:16.390Z,8.88
2022-10-17T07:36:45.441Z,8.52
2022-10-17T07:39:14.346Z,9.02
2022-10-17T07:41:41.788Z,9.35
2022-10-17T07:44:09.379Z,8.43
2022-10-17T07:46:43.044Z,8.75
2022-10-17T07:49:11.306Z,8.77
2022-10-17T07:51:40.909Z,8.20
2022-10-17T07:54:08.729Z,9.13
2022-10-17T07:56:36.370Z,8.93
2022-10-17T07:59:06.710Z,8.60
2022-10-17T08:01:37.053Z,8.77
2022-10-17T08:04:04.400Z,8.50
2022-10-17T08:06:31.732Z,8.65
2022-10-17T08:08:59.574Z,7.90
2022-10-17T08:11:26.992Z,7.95
2022-10-17T08:13:54.369Z,7.70
2022-10-17T08:16:21.739Z,8.07
2022-10-17T08:18:52.349Z,7.80
2022-10-17T08:21:22.380Z,7.90
2022-10-17T08:23:49.753Z,8.13
2022-10-17T08:26:19.892Z,8.35
2022-10-17T08:28:48.431Z,7.70
2022-10-17T08:31:19.437Z,7.07
2022-10-17T08:33:49.800Z,6.93
2022-10-17T08:36:20.124Z,7.35
2022-10-17T08:38:52.444Z,6.57
2022-10-17T08:42:00.993Z,6.30
2022-10-17T08:45:08.378Z,6.60
2022-10-17T08:47:44.150Z,6.63
2022-10-17T08:50:39.970Z,6.75
2022-10-17T08:53:27.555Z,5.97
2022-10-17T08:55:55.653Z,5.80
2022-10-17T08:58:35.554Z,6.07
2022-10-17T09:01:12.931Z,5.80
2022-10-17T09:04:16.539Z,5.45
2022-10-17T09:07:13.405Z,5.78
2022-10-17T09:10:01.769Z,6.45
2022-10-17T09:13:09.992Z,5.38
2022-10-17T09:15:43.208Z,6.30
2022-10-17T09:18:27.741Z,5.38
2022-10-17T09:21:08.964Z,5.57
2022-10-17T09:23:59.452Z,5.70
2022-10-17T09:26:40.680Z,5.15
2022-10-17T09:32:21.250Z,4.88
2022-10-17T09:34:57.629Z,4.88
2022-10-17T09:37:33.042Z,5.55
2022-10-17T09:40:01.054Z,4.95
2022-10-17T09:42:28.991Z,5.50
2022-10-17T09:45:19.284Z,5.90
2022-10-17T09:47:59.496Z,5.88
2022-10-17T09:50:33.250Z,6.15
2022-10-17T09:53:15.748Z,6.35
2022-10-17T09:55:49.272Z,7.40
2022-10-17T09:58:16.643Z,6.05
2022-10-17T10:00:48.260Z,6.38
2022-10-17T10:03:22.732Z,6.25
2022-10-17T10:06:26.153Z,6.35
2022-10-17T10:08:58.616Z,5.97
2022-10-17T10:11:49.874Z,6.70
2022-10-17T10:14:35.934Z,6.43
2022-10-17T10:17:24.157Z,6.72
2022-10-17T10:19:53.014Z,6.15
2022-10-17T10:22:26.116Z,6.60
2022-10-17T10:25:17.256Z,6.07
2022-10-17T10:27:47.391Z,7.13
2022-10-17T10:30:32.055Z,6.22
2022-10-17T10:33:01.557Z,6.18
2022-10-17T10:35:35.681Z,6.53
2022-10-17T10:38:13.602Z,6.72
2022-10-17T10:40:55.654Z,6.38
2022-10-17T10:43:31.049Z,7.10
2022-10-17T10:45:59.736Z,7.22
2022-10-17T10:48:37.556Z,7.10
2022-10-17T10:51:21.009Z,6.95
2022-10-17T10:54:11.982Z,7.05
2022-10-17T10:56:48.777Z,6.83
2022-10-17T10:59:55.847Z,6.78
2022-10-17T11:02:42.840Z,6.22
2022-10-17T11:05:37.446Z,6.50
2022-10-17T11:08:42.804Z,6.97
2022-10-17T11:11:28.169Z,6.78
2022-10-17T11:14:08.742Z,6.20
2022-10-17T11:17:01.005Z,6.15
2022-10-17T11:19:43.877Z,6.13
2022-10-17T11:22:34.667Z,6.05
2022-10-17T11:25:38.580Z,5.83
2022-10-17T11:28:20.303Z,6.43
2022-10-17T11:33:39.437Z,7.72
2022-10-17T11:36:10.349Z,8.50
2022-10-17T11:39:04.524Z,8.80
2022-10-17T11:41:55.214Z,8.10
2022-10-17T11:44:36.730Z,8.23
2022-10-17T11:47:45.075Z,8.52
2022-10-17T11:53:34.503Z,8.63
2022-10-17T11:56:02.780Z,9.13
2022-10-17T11:59:01.549Z,7.97
2022-10-17T12:01:45.678Z,8.70
2022-10-17T12:04:26.692Z,9.80
2022-10-17T12:07:15.568Z,9.32
2022-10-17T12:10:01.060Z,8.82
2022-10-17T12:12:35.107Z,10.05
2022-10-17T12:15:11.456Z,10.65
2022-10-17T12:17:45.821Z,9.77
2022-10-17T12:20:25.464Z,9.27
2022-10-17T12:23:23.993Z,10.43
2022-10-17T12:26:10.379Z,10.05
2022-10-17T12:28:37.759Z,11.90
2022-10-17T12:31:29.683Z,11.48
2022-10-17T12:34:05.430Z,12.48
2022-10-17T12:36:33.075Z,12.52
2022-10-17T12:39:03.061Z,13.65
2022-10-17T12:41:39.627Z,13.23
2022-10-17T12:44:13.883Z,13.57
2022-10-17T12:47:07.938Z,11.90
2022-10-17T12:49:41.050Z,13.45
2022-10-17T12:52:11.235Z,13.90
2022-10-17T12:54:47.642Z,14.48
2022-10-17T12:57:39.441Z,13.68
2022-10-17T13:00:33.676Z,14.48
2022-10-17T13:03:12.163Z,12.93
2022-10-17T13:05:47.718Z,12.18
2022-10-17T13:08:22.947Z,12.65
2022-10-17T13:10:53.538Z,11.45
2022-10-17T13:13:33.702Z,11.93
2022-10-17T13:16:01.256Z,10.43
2022-10-17T13:18:29.922Z,10.82
2022-10-17T13:21:26.929Z,10.45
2022-10-17T13:23:54.993Z,11.02
2022-10-17T13:26:26.728Z,10.02
2022-10-17T13:29:04.725Z,10.48
2022-10-17T13:31:41.762Z,11.13
2022-10-17T13:34:23.569Z,11.10
2022-10-17T13:36:56.644Z,11.32
2022-10-17T13:39:54.439Z,11.10
2022-10-17T13:42:31.316Z,10.35
2022-10-17T13:44:59.671Z,11.43
2022-10-17T13:47:32.631Z,11.18
2022-10-17T13:50:00.854Z,11.35
2022-10-17T13:52:30.760Z,11.13
2022-10-17T13:55:22.635Z,12.23
2022-10-17T13:57:52.276Z,11.30
2022-10-17T14:00:23.085Z,11.73
2022-10-17T14:02:50.508Z,12.33
2022-10-17T14:05:21.075Z,11.75
2022-10-17T14:08:21.905Z,12.30
2022-10-17T14:10:48.020Z,11.55
2022-10-17T14:13:26.000Z,11.80
2022-10-17T14:16:03.079Z,12.00
2022-10-17T14:18:36.557Z,11.90
2022-10-17T14:24:22.358Z,12.43
2022-10-17T14:26:59.448Z,13.10
2022-10-17T14:29:49.829Z,12.25
2022-10-17T14:32:19.598Z,12.00
2022-10-17T14:34:55.238Z,12.15
2022-10-17T14:37:47.577Z,12.15
2022-10-17T14:40:27.310Z,11.82
2022-10-17T14:43:00.279Z,12.43
2022-10-17T14:45:34.848Z,11.07
2022-10-17T14:48:13.466Z,11.18
2022-10-17T14:50:43.426Z,10.55
2022-10-17T14:53:10.694Z,10.23
2022-10-17T14:55:57.267Z,10.90
2022-10-17T14:58:28.052Z,10.07
2022-10-17T15:00:56.739Z,10.07
2022-10-17T15:03:25.205Z,9.15
2022-10-17T15:05:55.218Z,11.23
2022-10-17T15:08:24.273Z,10.73
2022-10-17T15:10:51.910Z,11.88
2022-10-17T15:13:28.039Z,11.45
2022-10-17T15:15:56.374Z,11.35
2022-10-17T15:18:23.748Z,11.90
2022-10-17T15:20:59.522Z,11.10
2022-10-17T15:23:32.540Z,12.35
2022-10-17T15:26:00.897Z,12.30
2022-10-17T15:28:28.422Z,11.80
2022-10-17T15:30:55.795Z,11.15
2022-10-17T15:33:23.156Z,11.20
2022-10-17T15:35:51.830Z,11.02
2022-10-17T15:38:19.236Z,10.75
2022-10-17T15:40:48.850Z,10.35
2022-10-17T15:43:19.785Z,10.65
2022-10-17T15:48:31.563Z,10.35
2022-10-17T15:55:35.648Z,10.23
2022-10-17T15:58:03.856Z,11.55
2022-10-17T16:00:31.364Z,12.65
2022-10-17T16:02:58.805Z,13.00
2022-10-17T16:05:26.868Z,13.02
2022-10-17T16:07:55.190Z,13.57
2022-10-17T16:10:23.586Z,14.38
2022-10-17T16:12:51.164Z,14.20
2022-10-17T16:15:28.029Z,13.80
2022-10-17T16:17:59.637Z,15.30
2022-10-17T16:20:42.309Z,14.82
2022-10-17T16:23:12.975Z,14.77
2022-10-17T16:25:41.460Z,14.83
2022-10-17T16:28:09.055Z,14.05
2022-10-17T16:30:44.453Z,15.05
2022-10-17T16:33:14.983Z,13.52
2022-10-17T16:35:42.444Z,14.60
2022-10-17T16:38:12.617Z,15.35
2022-10-17T16:40:40.728Z,14.77
2022-10-17T16:43:13.177Z,13.80
2022-10-17T16:45:41.125Z,14.30
2022-10-17T16:48:09.658Z,14.85
2022-10-17T16:50:39.893Z,14.60
2022-10-17T16:53:07.315Z,14.52
2022-10-17T16:55:34.691Z,13.48
2022-10-17T16:58:02.045Z,14.13
2022-10-17T17:00:29.542Z,13.38
2022-10-17T17:02:56.965Z,13.70
2022-10-17T17:05:24.318Z,13.30
2022-10-17T17:07:51.677Z,12.50
2022-10-17T17:10:19.016Z,13.25
2022-10-17T17:12:46.384Z,13.02
2022-10-17T17:15:13.806Z,13.90
2022-10-17T17:17:56.675Z,13.55
2022-10-17T17:20:24.724Z,13.13
2022-10-17T17:22:52.282Z,13.60
2022-10-17T17:25:19.692Z,12.75
2022-10-17T17:27:47.053Z,13.68
2022-10-17T17:30:14.464Z,13.15
2022-10-17T17:32:42.016Z,13.52
2022-10-17T17:35:09.704Z,14.10
2022-10-17T17:37:37.146Z,14.25
2022-10-17T17:40:06.113Z,13.70
2022-10-17T17:42:33.549Z,14.02
2022-10-17T17:45:00.940Z,13.13
2022-10-17T17:47:29.701Z,12.70
2022-10-17T17:49:57.335Z,13.15
2022-10-17T17:52:24.733Z,13.48
2022-10-17T17:54:52.148Z,13.95
2022-10-17T17:57:19.469Z,15.20
2022-10-17T17:59:48.491Z,14.85
2022-10-17T18:02:16.735Z,14.32
2022-10-17T18:04:44.237Z,15.15
2022-10-17T18:07:11.615Z,14.57
2022-10-17T18:09:39.012Z,13.88
2022-10-17T18:12:06.353Z,13.75
2022-10-17T18:14:33.776Z,13.80
2022-10-17T18:17:01.148Z,14.80
2022-10-17T18:19:28.669Z,13.45
2022-10-17T18:21:56.215Z,13.10
2022-10-17T18:24:23.599Z,13.77
2022-10-17T18:26:53.827Z,13.32
2022-10-17T18:29:21.399Z,14.57
2022-10-17T18:31:48.823Z,14.20
2022-10-17T18:34:19.343Z,14.35
2022-10-17T18:36:46.897Z,13.90
2022-10-17T18:39:14.288Z,13.75
2022-10-17T18:41:41.948Z,14.45
2022-10-17T18:44:12.291Z,13.98
2022-10-17T18:46:41.241Z,14.98
2022-10-17T18:49:11.956Z,14.43
2022-10-17T18:51:40.039Z,14.47
2022-10-17T18:54:14.619Z,14.48
2022-10-17T18:56:42.217Z,13.52
2022-10-17T18:59:09.655Z,14.13
2022-10-17T19:01:37.083Z,14.93
2022-10-17T19:04:04.729Z,15.27
2022-10-17T19:06:32.480Z,15.57
2022-10-17T19:09:10.561Z,15.15
2022-10-17T19:11:38.802Z,15.88
2022-10-17T19:14:13.041Z,16.15
2022-10-17T19:16:50.810Z,15.60
2022-10-17T19:19:24.895Z,15.50
2022-10-17T19:21:53.493Z,15.88
2022-10-17T19:24:24.186Z,14.98
2022-10-17T19:26:54.934Z,16.47
2022-10-17T19:29:27.450Z,15.07
2022-10-17T19:34:23.692Z,15.75
2022-10-17T19:36:52.019Z,15.85
2022-10-17T19:39:23.196Z,15.20
2022-10-17T19:41:50.807Z,15.65
2022-10-17T19:44:18.491Z,14.75
2022-10-17T19:46:46.904Z,15.05
2022-10-17T19:49:15.677Z,15.23
2022-10-17T19:51:43.240Z,14.23
2022-10-17T19:54:11.310Z,14.50
2022-10-17T19:56:38.825Z,14.88
2022-10-17T19:59:08.354Z,14.15
2022-10-17T20:01:41.192Z,14.93
2022-10-17T20:04:10.917Z,14.68
2022-10-17T20:06:39.824Z,13.73
2022-10-17T20:09:11.166Z,12.95
2022-10-17T20:11:44.992Z,13.10
2022-10-17T20:14:12.570Z,13.48
2022-10-17T20:16:39.976Z,13.50
2022-10-17T20:19:11.847Z,12.68
2022-10-17T20:24:13.214Z,12.43
2022-10-17T20:26:54.184Z,12.80
2022-10-17T20:29:23.893Z,12.45
2022-10-17T20:31:51.303Z,13.18
2022-10-17T20:34:19.749Z,12.77
2022-10-17T20:36:48.371Z,11.25
2022-10-17T20:39:19.056Z,12.57
2022-10-17T20:41:47.190Z,11.73
2022-10-17T20:44:14.682Z,11.52
2022-10-17T20:46:48.743Z,12.15
2022-10-17T20:49:25.249Z,11.75
2022-10-17T20:51:52.660Z,11.32
2022-10-17T20:54:21.823Z,11.18
2022-10-17T20:57:01.048Z,11.13
2022-10-17T20:59:35.048Z,12.48
2022-10-17T21:02:04.715Z,12.30
2022-10-17T21:04:45.950Z,11.45
2022-10-17T21:07:14.812Z,10.77
2022-10-17T21:09:42.205Z,11.10
2022-10-17T21:12:09.570Z,11.95
2022-10-17T21:14:39.777Z,10.85
2022-10-17T21:17:07.748Z,11.77
2022-10-17T21:19:35.172Z,10.52
2022-10-17T21:22:02.511Z,10.93
2022-10-17T21:24:30.871Z,10.43
2022-10-17T21:26:58.780Z,10.95
2022-10-17T21:29:26.404Z,10.70
2022-10-17T21:31:53.894Z,11.25
2022-10-17T21:34:27.705Z,11.00
2022-10-17T21:36:55.261Z,10.63
2022-10-17T21:39:24.714Z,10.93
2022-10-17T21:41:53.407Z,10.50
2022-10-17T21:44:25.284Z,10.05
2022-10-17T21:46:56.980Z,10.27
2022-10-17T21:49:30.934Z,10.13
2022-10-17T21:51:58.579Z,10.32
2022-10-17T21:54:25.920Z,10.48
2022-10-17T21:56:53.271Z,10.95
2022-10-17T21:59:20.616Z,11.02
2022-10-17T22:01:48.093Z,10.77
2022-10-17T22:04:18.869Z,10.45
2022-10-17T22:06:50.983Z,10.13
2022-10-17T22:09:22.730Z,9.88
2022-10-17T22:11:55.362Z,10.88
2022-10-17T22:14:25.916Z,10.63
2022-10-17T22:16:54.344Z,10.45
2022-10-17T22:19:29.128Z,10.95
2022-10-17T22:21:56.610Z,10.65
2022-10-17T22:24:24.114Z,11.35
2022-10-17T22:26:51.566Z,11.00
2022-10-17T22:29:19.547Z,9.88
2022-10-17T22:31:47.231Z,10.10
2022-10-17T22:34:16.921Z,11.40
2022-10-17T22:36:44.639Z,10.73
2022-10-17T22:39:12.001Z,10.32
2022-10-17T22:41:39.514Z,10.20
2022-10-17T22:44:07.319Z,10.57
2022-10-17T22:46:35.150Z,10.80
2022-10-17T22:49:03.331Z,10.93
2022-10-17T22:51:31.265Z,10.35
2022-10-17T22:53:58.722Z,10.77
2022-10-17T22:56:26.115Z,11.63
2022-10-17T22:58:53.483Z,10.63
2022-10-17T23:01:24.455Z,10.05
2022-10-17T23:03:53.073Z,10.73
2022-10-17T23:06:21.760Z,10.85
2022-10-17T23:08:49.228Z,10.27
2022-10-17T23:11:17.365Z,10.05
2022-10-17T23:13:44.787Z,10.85
2022-10-17T23:16:12.351Z,10.73
2022-10-17T23:18:40.063Z,10.15
2022-10-17T23:21:08.291Z,10.07
2022-10-17T23:23:36.295Z,10.55
2022-10-17T23:26:12.743Z,9.55
2022-10-17T23:28:41.831Z,9.63
2022-10-17T23:31:18.737Z,10.75
2022-10-17T23:33:48.849Z,10.57
2022-10-17T23:36:20.361Z,9.60
2022-10-17T23:41:16.542Z,10.35
2022-10-17T23:43:44.076Z,10.13
2022-10-17T23:46:11.786Z,9.75
2022-10-17T23:48:40.375Z,9.93
2022-10-17T23:51:09.815Z,9.52
2022-10-17T23:53:38.186Z,10.68
2022-10-17T23:56:07.791Z,9.52
2022-10-17T23:58:35.611Z,9.60
